Time;durP1;ratioP1;P1;durP2;ratioP2;P2;SDS_P1;SDS_P2;PMS_P1;PMS_P2;Temp;Humidity;BMP_temperature;BMP_pressure;BME280_temperature;BME280_humidity;BME280_pressure;Samples;Min_cycle;Max_cycle;Signal;HPM_P1;HPM_P2
2022/05/08 00:00:19;;;;;;;1999.90;999.90;;;17.60;57.50;;;;;;5029369;28;20040;-76
2022/05/08 00:02:45;;;;;;;1999.90;999.90;;;17.60;57.50;;;;;;5019263;28;20045;-76
2022/05/08 00:05:12;;;;;;;1999.90;999.90;;;17.60;57.60;;;;;;5024593;28;20053;-76
2022/05/08 00:07:38;;;;;;;1999.90;999.90;;;17.60;57.60;;;;;;5024031;28;20025;-76
2022/05/08 00:10:05;;;;;;;1999.90;999.90;;;17.60;57.60;;;;;;5022614;28;20044;-76
2022/05/08 00:12:31;;;;;;;1999.90;999.90;;;17.60;57.60;;;;;;5025329;28;20046;-76
2022/05/08 00:14:57;;;;;;;1999.90;999.90;;;17.60;57.70;;;;;;5026270;28;20021;-76
2022/05/08 00:17:23;;;;;;;1999.90;999.90;;;17.60;57.70;;;;;;5022172;28;20065;-75
2022/05/08 00:19:49;;;;;;;1999.90;999.90;;;17.50;57.70;;;;;;5024042;28;20371;-76
2022/05/08 00:22:15;;;;;;;1999.90;999.90;;;17.50;57.80;;;;;;5020328;28;20030;-76
2022/05/08 00:24:41;;;;;;;1999.90;999.90;;;17.50;58.00;;;;;;5020138;28;20033;-76
2022/05/08 00:27:07;;;;;;;1999.90;999.90;;;17.40;58.10;;;;;;5026472;28;20506;-76
2022/05/08 00:29:34;;;;;;;1999.90;999.90;;;17.40;58.20;;;;;;5022760;28;20048;-76
2022/05/08 00:32:00;;;;;;;1999.90;999.90;;;17.30;58.30;;;;;;5021980;28;20063;-76
2022/05/08 00:34:26;;;;;;;1999.90;999.90;;;17.20;58.50;;;;;;5019350;28;20021;-76
2022/05/08 00:36:52;;;;;;;1999.90;999.90;;;17.20;58.60;;;;;;5027155;28;20040;-76
2022/05/08 00:39:19;;;;;;;1999.90;999.90;;;17.10;58.70;;;;;;5008828;28;20034;-76
2022/05/08 00:41:46;;;;;;;1999.90;999.90;;;17.10;58.90;;;;;;5022378;28;20041;-76
2022/05/08 00:44:13;;;;;;;1999.90;999.90;;;17.00;58.90;;;;;;5020701;28;20033;-76
2022/05/08 00:46:39;;;;;;;1999.90;999.90;;;17.00;58.90;;;;;;5020712;28;20037;-76
2022/05/08 00:49:06;;;;;;;1999.90;999.90;;;17.00;59.00;;;;;;5018771;28;20033;-76
2022/05/08 00:51:32;;;;;;;1999.90;999.90;;;16.90;59.00;;;;;;5018975;28;20049;-76
2022/05/08 00:54:00;;;;;;;1999.90;999.90;;;16.90;59.00;;;;;;5019076;28;20040;-76
2022/05/08 00:56:26;;;;;;;1999.90;999.90;;;16.90;59.00;;;;;;5023166;28;20026;-76
2022/05/08 00:58:53;;;;;;;1999.90;999.90;;;16.90;59.10;;;;;;5021316;28;20470;-76
2022/05/08 01:01:20;;;;;;;1999.90;999.90;;;16.90;59.10;;;;;;5019090;28;20025;-76
2022/05/08 01:03:46;;;;;;;1999.90;999.90;;;16.90;59.10;;;;;;5017605;28;20041;-76
2022/05/08 01:06:14;;;;;;;1999.90;999.90;;;16.80;59.10;;;;;;5004404;28;20046;-76
2022/05/08 01:08:42;;;;;;;1999.90;999.90;;;16.80;59.20;;;;;;5022059;28;20025;-76
2022/05/08 01:11:08;;;;;;;1999.90;999.90;;;16.80;59.30;;;;;;5007069;28;20041;-76
2022/05/08 01:13:34;;;;;;;1999.90;999.90;;;16.70;59.30;;;;;;5026300;28;20107;-76
2022/05/08 01:16:00;;;;;;;1999.90;999.90;;;16.70;59.30;;;;;;5023697;28;20479;-76
2022/05/08 01:18:27;;;;;;;1999.90;999.90;;;16.70;59.30;;;;;;5024454;28;20520;-76
2022/05/08 01:20:53;;;;;;;1999.90;999.90;;;16.70;59.40;;;;;;5025250;28;20029;-76
2022/05/08 01:23:21;;;;;;;1999.90;999.90;;;16.70;59.50;;;;;;5024318;28;20251;-76
2022/05/08 01:25:52;;;;;;;1999.90;999.90;;;16.60;59.50;;;;;;5028202;28;20045;-76
2022/05/08 01:28:18;;;;;;;;;;;16.60;59.60;;;;;;5024823;28;20037;-76
2022/05/08 01:30:46;;;;;;;1999.90;999.90;;;16.60;59.60;;;;;;5029163;28;19921;-76
2022/05/08 01:33:13;;;;;;;1999.90;999.90;;;16.50;59.60;;;;;;5027659;28;20467;-76
2022/05/08 01:35:39;;;;;;;1999.90;999.90;;;16.50;59.70;;;;;;5005247;28;20026;-76
2022/05/08 01:38:05;;;;;;;1999.90;999.90;;;16.50;59.70;;;;;;5007608;28;20033;-76
2022/05/08 01:40:31;;;;;;;1999.90;999.90;;;16.40;59.80;;;;;;5025179;28;20029;-76
2022/05/08 01:42:58;;;;;;;1999.90;999.90;;;16.40;59.90;;;;;;5024921;28;20041;-76
2022/05/08 01:45:24;;;;;;;1999.90;999.90;;;16.30;60.00;;;;;;5029226;28;20037;-76
2022/05/08 01:50:35;;;;;;;1999.90;999.90;;;16.20;60.20;;;;;;5028654;28;20038;-76
2022/05/08 01:53:02;;;;;;;1999.90;999.90;;;16.20;60.30;;;;;;5027838;28;20040;-76
2022/05/08 01:55:28;;;;;;;1999.90;999.90;;;16.20;61.10;;;;;;5029889;28;20025;-76
2022/05/08 01:57:54;;;;;;;1999.90;999.90;;;16.20;60.40;;;;;;4998651;28;20041;-76
2022/05/08 02:00:24;;;;;;;1999.90;999.90;;;16.10;60.40;;;;;;5027671;28;20029;-76
2022/05/08 02:02:50;;;;;;;1999.90;999.90;;;16.10;60.50;;;;;;5020803;28;20041;-76
2022/05/08 02:05:16;;;;;;;1999.90;999.90;;;16.10;60.50;;;;;;5037078;28;20028;-76
2022/05/08 02:07:44;;;;;;;1999.90;999.90;;;16.00;60.60;;;;;;5009327;28;20049;-76
2022/05/08 02:10:10;;;;;;;1999.90;999.90;;;16.00;60.70;;;;;;5020873;28;20038;-76
2022/05/08 02:12:37;;;;;;;1999.90;999.90;;;16.00;60.70;;;;;;5024269;28;20394;-76
2022/05/08 02:15:04;;;;;;;1999.90;999.90;;;15.90;60.70;;;;;;5028455;28;20101;-75
2022/05/08 02:17:30;;;;;;;1999.90;999.90;;;16.00;60.90;;;;;;5025549;28;20053;-76
2022/05/08 02:19:56;;;;;;;1999.90;999.90;;;15.90;60.90;;;;;;5013239;28;20489;-76
2022/05/08 02:22:22;;;;;;;1999.90;999.90;;;15.90;61.00;;;;;;5028293;28;20032;-76
2022/05/08 02:24:48;;;;;;;1999.90;999.90;;;15.80;61.00;;;;;;5020953;28;20038;-76
2022/05/08 02:27:14;;;;;;;1999.90;999.90;;;15.90;61.10;;;;;;5029335;28;20040;-76
2022/05/08 02:29:40;;;;;;;1999.90;999.90;;;15.80;61.10;;;;;;5009879;28;20042;-76
2022/05/08 02:32:07;;;;;;;1999.90;999.90;;;15.80;61.10;;;;;;5025834;28;20034;-76
2022/05/08 02:34:33;;;;;;;1999.90;999.90;;;15.80;61.10;;;;;;5029612;28;20037;-76
2022/05/08 02:36:59;;;;;;;1999.90;999.90;;;15.80;61.20;;;;;;5026770;28;20277;-76
2022/05/08 02:39:25;;;;;;;1999.90;999.90;;;15.80;61.20;;;;;;5030915;28;20036;-76
2022/05/08 02:41:52;;;;;;;1999.90;999.90;;;15.80;61.20;;;;;;5025974;28;20042;-76
2022/05/08 02:44:19;;;;;;;1999.90;999.90;;;15.80;61.30;;;;;;5003332;28;20033;-75
2022/05/08 02:46:45;;;;;;;1999.90;999.90;;;15.70;61.40;;;;;;5025681;28;20037;-76
2022/05/08 02:49:11;;;;;;;1999.90;999.90;;;15.70;61.50;;;;;;5013049;28;20046;-76
2022/05/08 02:51:38;;;;;;;1999.90;999.90;;;15.60;61.50;;;;;;5028772;28;20343;-76
2022/05/08 02:54:04;;;;;;;1999.90;999.90;;;15.60;61.60;;;;;;5024228;28;20099;-76
2022/05/08 02:59:15;;;;;;;1999.90;999.90;;;15.50;61.70;;;;;;5022264;28;20037;-76
2022/05/08 03:01:41;;;;;;;1999.90;999.90;;;15.50;62.60;;;;;;5025318;28;20041;-76
2022/05/08 03:04:07;;;;;;;1999.90;999.90;;;15.50;62.00;;;;;;5030073;28;20049;-76
2022/05/08 03:06:33;;;;;;;1999.90;999.90;;;15.40;62.10;;;;;;5026632;28;20386;-76
2022/05/08 03:08:59;;;;;;;1999.90;999.90;;;15.40;62.10;;;;;;5028481;28;20029;-76
2022/05/08 03:11:26;;;;;;;1999.90;999.90;;;15.40;62.10;;;;;;5007929;28;20037;-76
2022/05/08 03:13:52;;;;;;;1999.90;999.90;;;15.40;62.20;;;;;;5027546;28;20026;-76
2022/05/08 03:16:18;;;;;;;1999.90;999.90;;;15.30;62.30;;;;;;5014275;28;20421;-76
2022/05/08 03:18:45;;;;;;;1999.90;999.90;;;15.30;62.30;;;;;;5010316;28;20485;-76
2022/05/08 03:21:12;;;;;;;1999.90;999.90;;;15.30;62.30;;;;;;5015798;28;20033;-76
2022/05/08 03:23:42;;;;;;;1999.90;999.90;;;15.30;62.50;;;;;;5027098;28;20044;-76
2022/05/08 03:26:08;;;;;;;1999.90;999.90;;;15.20;62.60;;;;;;5027362;28;20497;-76
2022/05/08 03:28:35;;;;;;;1999.90;999.90;;;15.20;62.80;;;;;;5028790;28;20044;-76
2022/05/08 03:31:02;;;;;;;1999.90;999.90;;;15.10;62.90;;;;;;5025743;28;20044;-76
2022/05/08 03:33:28;;;;;;;1999.90;999.90;;;15.10;62.90;;;;;;5011763;28;20483;-76
2022/05/08 03:35:54;;;;;;;1999.90;999.90;;;15.10;62.90;;;;;;5011492;28;20034;-76
2022/05/08 03:38:21;;;;;;;1999.90;999.90;;;15.10;63.00;;;;;;5018122;28;20030;-76
2022/05/08 03:40:47;;;;;;;1999.90;999.90;;;15.10;63.00;;;;;;5022761;28;20040;-76
2022/05/08 03:43:14;;;;;;;1999.90;999.90;;;15.00;62.90;;;;;;5007250;28;20406;-76
2022/05/08 03:45:40;;;;;;;1999.90;999.90;;;15.00;63.70;;;;;;5023088;28;20034;-76
2022/05/08 03:48:06;;;;;;;1999.90;999.90;;;15.00;63.00;;;;;;5024124;28;20026;-76
2022/05/08 03:50:32;;;;;;;1999.90;999.90;;;15.00;63.20;;;;;;5023083;28;20052;-76
2022/05/08 03:52:59;;;;;;;1999.90;999.90;;;14.90;63.50;;;;;;5020913;28;20060;-76
2022/05/08 03:55:25;;;;;;;1999.90;999.90;;;14.90;63.20;;;;;;5023848;28;20049;-76
2022/05/08 03:57:51;;;;;;;1999.90;999.90;;;14.90;63.30;;;;;;5024827;28;20493;-76
2022/05/08 04:00:19;;;;;;;1999.90;999.90;;;14.90;63.50;;;;;;5027436;28;20033;-76
2022/05/08 04:02:45;;;;;;;1999.90;999.90;;;14.80;63.50;;;;;;5026463;28;20037;-76
2022/05/08 04:05:11;;;;;;;1999.90;999.90;;;14.80;63.50;;;;;;5027002;28;20041;-76
2022/05/08 04:07:37;;;;;;;1999.90;999.90;;;14.80;63.60;;;;;;5024276;28;20034;-76
2022/05/08 04:10:04;;;;;;;1999.90;999.90;;;14.80;64.40;;;;;;5021632;28;20029;-76
2022/05/08 04:12:30;;;;;;;1999.90;999.90;;;14.70;63.70;;;;;;5027545;28;20812;-76
2022/05/08 04:14:57;;;;;;;1999.90;999.90;;;14.70;63.70;;;;;;5008893;28;20048;-76
2022/05/08 04:17:24;;;;;;;1999.90;999.90;;;14.70;63.70;;;;;;5024148;28;20052;-76
2022/05/08 04:19:50;;;;;;;1999.90;999.90;;;14.70;63.60;;;;;;5019017;28;20056;-76
2022/05/08 04:25:00;;;;;;;1999.90;999.90;;;14.70;63.50;;;;;;5018108;28;20037;-76
2022/05/08 04:27:26;;;;;;;1999.90;999.90;;;14.70;63.50;;;;;;5026737;28;20390;-76
2022/05/08 04:29:52;;;;;;;1999.90;999.90;;;14.80;63.60;;;;;;5017181;28;20049;-77
2022/05/08 04:32:19;;;;;;;1999.90;999.90;;;14.70;63.70;;;;;;5022672;28;20544;-76
2022/05/08 04:34:45;;;;;;;1999.90;999.90;;;14.70;63.70;;;;;;5010295;28;20410;-76
2022/05/08 04:37:11;;;;;;;1999.90;999.90;;;14.70;63.70;;;;;;5022068;28;20049;-76
2022/05/08 04:39:37;;;;;;;1999.90;999.90;;;14.70;63.70;;;;;;5021998;28;20045;-76
2022/05/08 04:42:03;;;;;;;1999.90;999.90;;;14.60;63.70;;;;;;5025699;28;20034;-76
2022/05/08 04:44:29;;;;;;;1999.90;999.90;;;14.70;63.90;;;;;;5020811;28;20050;-76
2022/05/08 04:46:55;;;;;;;1999.90;999.90;;;14.60;63.80;;;;;;5029643;28;20490;-76
2022/05/08 04:49:21;;;;;;;1999.90;999.90;;;14.60;63.80;;;;;;5032373;28;20040;-76
2022/05/08 04:51:48;;;;;;;1999.90;999.90;;;14.60;63.90;;;;;;5028237;28;20022;-76
2022/05/08 04:54:14;;;;;;;1999.90;999.90;;;14.60;63.90;;;;;;5031530;28;20043;-76
2022/05/08 04:56:40;;;;;;;1999.90;999.90;;;14.50;64.00;;;;;;5026561;28;20026;-76
2022/05/08 04:59:06;;;;;;;1999.90;999.90;;;14.50;64.10;;;;;;5031925;28;20025;-76
2022/05/08 05:01:34;;;;;;;1999.90;999.90;;;14.50;64.10;;;;;;5014315;28;20078;-76
2022/05/08 05:04:00;;;;;;;1999.90;999.90;;;14.50;64.00;;;;;;5017614;28;20064;-76
2022/05/08 05:06:26;;;;;;;1999.90;999.90;;;14.60;64.00;;;;;;5020901;28;20026;-76
2022/05/08 05:08:52;;;;;;;1999.90;999.90;;;14.60;64.00;;;;;;5030252;28;20063;-77
2022/05/08 05:11:19;;;;;;;1999.90;999.90;;;14.60;64.10;;;;;;5030995;28;20042;-76
2022/05/08 05:13:45;;;;;;;1999.90;999.90;;;14.50;64.00;;;;;;5026247;28;20037;-76
2022/05/08 05:16:11;;;;;;;1999.90;999.90;;;14.50;64.10;;;;;;5028132;28;20041;-76
2022/05/08 05:18:37;;;;;;;1999.90;999.90;;;14.50;64.10;;;;;;5006082;28;20101;-76
2022/05/08 05:21:03;;;;;;;1999.90;999.90;;;14.50;64.00;;;;;;5024724;28;20034;-76
2022/05/08 05:23:29;;;;;;;1999.90;999.90;;;14.60;64.10;;;;;;5029113;28;20045;-77
2022/05/08 05:25:56;;;;;;;1999.90;999.90;;;14.70;64.00;;;;;;5029458;28;20029;-77
2022/05/08 05:28:22;;;;;;;1999.90;999.90;;;14.90;63.90;;;;;;5024966;28;20037;-77
2022/05/08 05:30:48;;;;;;;1999.90;999.90;;;15.10;63.50;;;;;;5028884;28;20045;-76
2022/05/08 05:33:15;;;;;;;1999.90;999.90;;;15.30;63.30;;;;;;5029796;28;20037;-76
2022/05/08 05:35:42;;;;;;;1999.90;999.90;;;15.40;63.00;;;;;;5023049;28;20050;-76
2022/05/08 05:38:08;;;;;;;1999.90;999.90;;;15.60;62.80;;;;;;5027418;28;20383;-77
2022/05/08 05:40:34;;;;;;;1999.90;999.90;;;15.80;62.50;;;;;;5020200;28;20048;-77
2022/05/08 05:43:00;;;;;;;1999.90;999.90;;;15.90;62.30;;;;;;5027576;28;20037;-76
2022/05/08 05:45:27;;;;;;;1999.90;999.90;;;16.00;62.20;;;;;;5027097;28;20041;-78
2022/05/08 05:47:53;;;;;;;1999.90;999.90;;;16.10;62.20;;;;;;5024188;28;20034;-75
2022/05/08 05:50:25;;;;;;;1999.90;999.90;;;16.20;62.10;;;;;;5028107;28;20418;-77
2022/05/08 05:52:52;;;;;;;1999.90;999.90;;;16.30;62.10;;;;;;5024466;28;20501;-76
2022/05/08 05:55:18;;;;;;;1999.90;999.90;;;16.30;62.00;;;;;;5013737;28;20025;-76
2022/05/08 05:57:44;;;;;;;1999.90;999.90;;;16.40;62.00;;;;;;5028231;28;20041;-75
2022/05/08 06:00:17;;;;;;;1999.90;999.90;;;16.40;62.00;;;;;;5031499;28;20037;-75
2022/05/08 06:02:45;;;;;;;1999.90;999.90;;;16.30;62.00;;;;;;5029207;28;20036;-75
2022/05/08 06:05:11;;;;;;;1999.90;999.90;;;16.30;62.10;;;;;;5028483;28;20045;-75
2022/05/08 06:07:38;;;;;;;1999.90;999.90;;;16.40;62.20;;;;;;5022617;28;20028;-75
2022/05/08 06:10:08;;;;;;;1999.90;999.90;;;16.50;62.10;;;;;;5022757;28;20414;-75
2022/05/08 06:12:35;;;;;;;1999.90;999.90;;;16.50;61.90;;;;;;5032643;28;20033;-75
2022/05/08 06:15:01;;;;;;;1999.90;999.90;;;16.60;61.90;;;;;;5030301;28;20359;-74
2022/05/08 06:17:27;;;;;;;1999.90;999.90;;;16.60;61.80;;;;;;5025048;28;20050;-74
2022/05/08 06:19:53;;;;;;;1999.90;999.90;;;16.70;61.70;;;;;;5031601;28;20034;-75
2022/05/08 06:22:19;;;;;;;1999.90;999.90;;;16.80;61.60;;;;;;5023599;28;20037;-75
2022/05/08 06:24:45;;;;;;;1999.90;999.90;;;16.90;61.40;;;;;;5031175;28;20052;-74
2022/05/08 06:27:11;;;;;;;1999.90;999.90;;;17.00;61.30;;;;;;5032653;28;20044;-74
2022/05/08 06:29:37;;;;;;;1999.90;999.90;;;17.20;61.10;;;;;;5022437;28;20102;-75
2022/05/08 06:32:04;;;;;;;1999.90;999.90;;;17.20;60.90;;;;;;5029210;28;20030;-74
2022/05/08 06:34:30;;;;;;;1999.90;999.90;;;17.20;60.90;;;;;;5030723;28;20060;-75
2022/05/08 06:36:56;;;;;;;1999.90;999.90;;;17.20;61.10;;;;;;5023537;28;20049;-75
2022/05/08 06:39:22;;;;;;;1999.90;999.90;;;17.20;61.10;;;;;;5030718;28;20040;-75
2022/05/08 06:41:48;;;;;;;1999.90;999.90;;;17.30;61.10;;;;;;5011759;28;20040;-76
2022/05/08 06:44:14;;;;;;;1999.90;999.90;;;17.30;61.00;;;;;;5030240;28;20068;-74
2022/05/08 06:46:40;;;;;;;1999.90;999.90;;;17.40;61.00;;;;;;5028616;28;20030;-75
2022/05/08 06:49:07;;;;;;;1999.90;999.90;;;17.50;60.80;;;;;;5025666;28;20029;-75
2022/05/08 06:51:34;;;;;;;1999.90;999.90;;;17.60;60.70;;;;;;5028343;28;20045;-75
2022/05/08 06:54:00;;;;;;;1999.90;999.90;;;17.60;60.60;;;;;;5025579;28;20034;-74
2022/05/08 06:56:30;;;;;;;1999.90;999.90;;;17.80;60.50;;;;;;5030978;28;20040;-74
2022/05/08 07:01:43;;;;;;;1999.90;999.90;;;17.90;60.40;;;;;;5026170;28;20033;-75
2022/05/08 07:04:10;;;;;;;1999.90;999.90;;;17.90;60.30;;;;;;5026329;28;20056;-74
2022/05/08 07:06:38;;;;;;;1999.90;999.90;;;18.10;60.00;;;;;;5017976;28;20379;-74
2022/05/08 07:09:05;;;;;;;1999.90;999.90;;;18.20;59.80;;;;;;5030880;28;20026;-74
2022/05/08 07:11:31;;;;;;;1999.90;999.90;;;18.30;59.70;;;;;;5029883;28;20033;-74
2022/05/08 07:13:58;;;;;;;1999.90;999.90;;;18.40;59.70;;;;;;5028989;28;20029;-75
2022/05/08 07:16:24;;;;;;;1999.90;999.90;;;18.50;59.60;;;;;;5028954;28;20105;-75
2022/05/08 07:18:50;;;;;;;1999.90;999.90;;;18.70;59.40;;;;;;5024937;28;20406;-75
2022/05/08 07:21:16;;;;;;;1999.90;999.90;;;18.70;59.30;;;;;;5024728;28;20042;-75
2022/05/08 07:23:42;;;;;;;1999.90;999.90;;;18.70;59.30;;;;;;5021945;28;20038;-74
2022/05/08 07:26:08;;;;;;;1999.90;999.90;;;18.80;59.30;;;;;;5027988;28;20037;-75
2022/05/08 07:28:34;;;;;;;1999.90;999.90;;;18.80;59.30;;;;;;5028355;28;20032;-75
2022/05/08 07:31:02;;;;;;;1999.90;999.90;;;18.90;59.20;;;;;;5029465;28;20052;-75
2022/05/08 07:33:29;;;;;;;1999.90;999.90;;;19.00;59.00;;;;;;5027440;28;20040;-75
2022/05/08 07:36:13;;;;;;;1999.90;999.90;;;19.10;58.90;;;;;;5030345;28;20025;-75
2022/05/08 07:38:43;;;;;;;1999.90;999.90;;;19.20;58.90;;;;;;5026861;28;20034;-74
2022/05/08 07:41:10;;;;;;;1999.90;999.90;;;19.30;58.70;;;;;;5008030;28;20037;-75
2022/05/08 07:43:37;;;;;;;1999.90;999.90;;;19.40;58.60;;;;;;5020743;28;20295;-75
2022/05/08 07:46:03;;;;;;;1999.90;999.90;;;19.50;58.50;;;;;;5025350;28;20406;-75
2022/05/08 07:48:30;;;;;;;1999.90;999.90;;;19.60;58.30;;;;;;5029361;28;20042;-77
2022/05/08 07:50:59;;;;;;;1999.90;999.90;;;19.70;58.20;;;;;;5027795;28;20025;-77
2022/05/08 07:53:26;;;;;;;1999.90;999.90;;;19.80;58.20;;;;;;5025438;28;20045;-77
2022/05/08 07:55:53;;;;;;;1999.90;999.90;;;19.80;58.10;;;;;;5038678;28;20026;-76
2022/05/08 07:58:22;;;;;;;1999.90;999.90;;;20.00;58.10;;;;;;5029175;28;20033;-76
2022/05/08 08:00:49;;;;;;;1999.90;999.90;;;20.20;57.80;;;;;;5000681;28;20036;-76
2022/05/08 08:03:19;;;;;;;1999.90;999.90;;;20.40;57.50;;;;;;5005738;28;20026;-76
2022/05/08 08:05:45;;;;;;;1999.90;999.90;;;20.40;57.40;;;;;;5028929;28;20048;-76
2022/05/08 08:08:11;;;;;;;1999.90;999.90;;;20.50;57.40;;;;;;5023450;28;20036;-78
2022/05/08 08:10:37;;;;;;;1999.90;999.90;;;20.60;57.30;;;;;;5021278;28;20497;-79
2022/05/08 08:13:03;;;;;;;1999.90;999.90;;;20.70;57.10;;;;;;5018536;28;20041;-77
2022/05/08 08:15:30;;;;;;;1999.90;999.90;;;20.80;56.90;;;;;;5029096;28;20060;-77
2022/05/08 08:17:56;;;;;;;1999.90;999.90;;;20.80;56.90;;;;;;5025904;28;20045;-80
2022/05/08 08:20:22;;;;;;;1999.90;999.90;;;20.90;56.80;;;;;;5026668;28;20033;-78
2022/05/08 08:22:48;;;;;;;1999.90;999.90;;;21.10;56.60;;;;;;5027301;28;20041;-80
2022/05/08 08:25:14;;;;;;;1999.90;999.90;;;21.20;56.40;;;;;;5022642;28;20037;-76
2022/05/08 08:27:41;;;;;;;1999.90;999.90;;;21.20;56.30;;;;;;5018938;28;20037;-75
2022/05/08 08:30:08;;;;;;;1999.90;999.90;;;21.40;56.40;;;;;;5020755;28;20363;-76
2022/05/08 08:32:34;;;;;;;1999.90;999.90;;;21.50;56.10;;;;;;5034220;28;20041;-75
2022/05/08 08:35:00;;;;;;;1999.90;999.90;;;21.60;56.00;;;;;;5030760;28;20040;-76
2022/05/08 08:37:26;;;;;;;1999.90;999.90;;;21.60;55.80;;;;;;5032211;28;20048;-78
2022/05/08 08:39:52;;;;;;;1999.90;999.90;;;21.70;55.80;;;;;;5034008;28;20045;-77
2022/05/08 08:42:29;;;;;;;1999.90;999.90;;;21.70;55.60;;;;;;5034248;28;20063;-77
2022/05/08 08:47:56;;;;;;;1999.90;999.90;;;21.90;55.40;;;;;;5030695;28;20221;-78
2022/05/08 08:50:23;;;;;;;1999.90;999.90;;;22.00;55.20;;;;;;5030122;28;20036;-76
2022/05/08 08:52:49;;;;;;;1999.90;999.90;;;22.20;55.20;;;;;;5023807;28;20036;-76
2022/05/08 08:55:16;;;;;;;1999.90;999.90;;;22.30;54.90;;;;;;5031658;28;20049;-76
2022/05/08 08:57:45;;;;;;;1999.90;999.90;;;22.40;54.80;;;;;;5031452;28;20030;-75
2022/05/08 09:00:12;;;;;;;1999.90;999.90;;;22.60;54.60;;;;;;5014408;28;20509;-76
2022/05/08 09:02:38;;;;;;;1999.90;999.90;;;22.70;54.40;;;;;;5014063;28;20033;-76
2022/05/08 09:05:05;;;;;;;1999.90;999.90;;;22.80;54.30;;;;;;5016026;28;20486;-77
2022/05/08 09:07:41;;;;;;;1999.90;999.90;;;22.90;54.10;;;;;;5025608;28;20442;-75
2022/05/08 09:10:08;;;;;;;1999.90;999.90;;;22.90;54.00;;;;;;5030751;28;20029;-75
2022/05/08 09:12:34;;;;;;;1999.90;999.90;;;22.90;54.00;;;;;;5031172;28;20096;-76
2022/05/08 09:15:34;;;;;;;1999.90;999.90;;;23.00;53.90;;;;;;4994349;28;20394;-76
2022/05/08 09:18:07;;;;;;;1999.90;999.90;;;23.10;53.70;;;;;;4977221;28;20058;-76
2022/05/08 09:20:39;;;;;;;1999.90;999.90;;;23.20;53.70;;;;;;4957892;28;20041;-76
2022/05/08 09:23:17;;;;;;;1999.90;999.90;;;23.30;53.50;;;;;;4988052;28;20035;-76
2022/05/08 09:25:54;;;;;;;1999.90;999.90;;;23.40;53.30;;;;;;4976580;28;20442;-75
2022/05/08 09:28:43;;;;;;;1999.90;999.90;;;23.50;53.20;;;;;;4982604;28;20480;-78
2022/05/08 09:31:12;;;;;;;1999.90;999.90;;;23.60;53.10;;;;;;4984404;28;20082;-76
2022/05/08 09:33:40;;;;;;;1999.90;999.90;;;23.70;52.80;;;;;;5002504;28;20037;-76
2022/05/08 09:36:07;;;;;;;1999.90;999.90;;;23.90;52.50;;;;;;4987120;28;20057;-77
2022/05/08 09:38:45;;;;;;;1999.90;999.90;;;24.00;52.40;;;;;;4988065;28;20027;-76
2022/05/08 09:41:12;;;;;;;1999.90;999.90;;;24.00;52.20;;;;;;4987076;28;20053;-77
2022/05/08 09:43:40;;;;;;;1999.90;999.90;;;24.00;52.20;;;;;;4990116;28;20038;-76
2022/05/08 09:46:06;;;;;;;1999.90;999.90;;;24.10;52.10;;;;;;4987856;28;20050;-76
2022/05/08 09:48:33;;;;;;;1999.90;999.90;;;24.20;51.90;;;;;;4990195;28;20034;-76
2022/05/08 09:51:04;;;;;;;1999.90;999.90;;;24.30;51.80;;;;;;4959637;28;20503;-78
2022/05/08 09:53:31;;;;;;;1999.90;999.90;;;24.30;51.70;;;;;;4990847;28;20035;-78
2022/05/08 09:55:59;;;;;;;1999.90;999.90;;;24.40;51.60;;;;;;5030565;28;20393;-78
2022/05/08 09:58:26;;;;;;;1999.90;999.90;;;24.40;52.10;;;;;;4995170;28;20041;-83
2022/05/08 10:00:52;;;;;;;1999.90;999.90;;;24.60;51.50;;;;;;5026123;28;22952;-80
2022/05/08 10:03:19;;;;;;;1999.90;999.90;;;24.60;51.20;;;;;;5026194;28;20037;-79
2022/05/08 10:05:45;;;;;;;1999.90;999.90;;;24.70;51.10;;;;;;5029684;28;20449;-79
2022/05/08 10:08:22;;;;;;;1999.90;999.90;;;24.80;51.10;;;;;;5028026;28;20048;-79
2022/05/08 10:13:53;;;;;;;1999.90;999.90;;;25.00;50.40;;;;;;5028903;28;20390;-79
2022/05/08 10:16:41;;;;;;;1999.90;999.90;;;25.00;50.40;;;;;;5027051;28;20048;-79
2022/05/08 10:19:19;;;;;;;1999.90;999.90;;;25.00;50.40;;;;;;5030474;28;20025;-79
2022/05/08 10:21:57;;;;;;;1999.90;999.90;;;25.20;50.20;;;;;;5032202;28;20048;-79
2022/05/08 10:24:34;;;;;;;1999.90;999.90;;;25.30;49.90;;;;;;5028364;28;20034;-79
2022/05/08 10:27:15;;;;;;;1999.90;999.90;;;25.30;49.70;;;;;;5029309;28;20026;-79
2022/05/08 10:29:41;;;;;;;1999.90;999.90;;;25.30;49.60;;;;;;5030755;28;20041;-79
2022/05/08 10:32:09;;;;;;;1999.90;999.90;;;25.30;49.50;;;;;;5029105;28;20033;-79
2022/05/08 10:34:38;;;;;;;1999.90;999.90;;;25.30;49.50;;;;;;5011616;28;20038;-78
2022/05/08 10:37:13;;;;;;;1999.90;999.90;;;25.40;49.40;;;;;;5030427;28;20391;-78
2022/05/08 10:39:43;;;;;;;1999.90;999.90;;;25.50;49.00;;;;;;5030530;28;20040;-79
2022/05/08 10:42:40;;;;;;;1999.90;999.90;;;25.60;48.90;;;;;;5028217;28;20041;-79
2022/05/08 10:45:06;;;;;;;1999.90;999.90;;;25.70;48.80;;;;;;5014127;28;20049;-79
2022/05/08 10:47:42;;;;;;;1999.90;999.90;;;25.80;48.60;;;;;;5028073;28;20037;-78
2022/05/08 10:50:10;;;;;;;1999.90;999.90;;;25.90;48.30;;;;;;5029738;28;20584;-79
2022/05/08 10:52:43;;;;;;;1999.90;999.90;;;25.90;48.30;;;;;;5029138;28;20037;-78
2022/05/08 10:55:14;;;;;;;1999.90;999.90;;;26.00;48.20;;;;;;5031003;28;20042;-81
2022/05/08 10:57:41;;;;;;;1999.90;999.90;;;26.10;48.10;;;;;;5018535;28;20049;-79
2022/05/08 11:00:14;;;;;;;1999.90;999.90;;;26.00;47.80;;;;;;5029168;28;20040;-79
2022/05/08 11:02:51;;;;;;;1999.90;999.90;;;25.90;47.90;;;;;;5027035;28;20026;-79
2022/05/08 11:05:28;;;;;;;1999.90;999.90;;;25.70;47.90;;;;;;5021602;28;20065;-77
2022/05/08 11:07:56;;;;;;;1999.90;999.90;;;25.60;47.70;;;;;;5026219;28;20032;-77
2022/05/08 11:10:26;;;;;;;1999.90;999.90;;;25.40;47.80;;;;;;5026066;28;20030;-77
2022/05/08 11:13:06;;;;;;;1999.90;999.90;;;25.40;47.80;;;;;;5024531;28;20033;-77
2022/05/08 11:15:36;;;;;;;1999.90;999.90;;;25.30;47.50;;;;;;5027376;28;20041;-78
2022/05/08 11:18:09;;;;;;;1999.90;999.90;;;25.20;47.60;;;;;;5024884;28;20049;-77
2022/05/08 11:20:36;;;;;;;1999.90;999.90;;;25.10;47.70;;;;;;5026265;28;20032;-78
2022/05/08 11:23:04;;;;;;;1999.90;999.90;;;25.20;47.60;;;;;;5010034;28;20056;-81
2022/05/08 11:25:33;;;;;;;1999.90;999.90;;;25.30;47.40;;;;;;5030765;28;20390;-78
2022/05/08 11:28:00;;;;;;;1999.90;999.90;;;25.30;47.20;;;;;;5022520;28;20021;-80
2022/05/08 11:30:33;;;;;;;1999.90;999.90;;;25.40;47.10;;;;;;5029201;28;20040;-77
2022/05/08 11:36:10;;;;;;;1999.90;999.90;;;25.50;46.50;;;;;;5023268;28;20030;-77
2022/05/08 11:38:45;;;;;;;1999.90;999.90;;;25.60;46.10;;;;;;5028234;28;20410;-76
2022/05/08 11:41:17;;;;;;;1999.90;999.90;;;25.40;46.00;;;;;;5023575;28;20493;-77
2022/05/08 11:43:50;;;;;;;1999.90;999.90;;;25.40;46.20;;;;;;5018076;28;20498;-77
2022/05/08 11:46:17;;;;;;;1999.90;999.90;;;25.40;46.00;;;;;;5029282;28;20053;-77
2022/05/08 11:48:48;;;;;;;1999.90;999.90;;;25.40;45.90;;;;;;5029700;28;20360;-77
2022/05/08 11:51:15;;;;;;;1999.90;999.90;;;25.70;45.70;;;;;;5028746;28;20033;-77
2022/05/08 11:53:49;;;;;;;1999.90;999.90;;;25.90;45.30;;;;;;5030349;28;20029;-76
2022/05/08 11:56:32;;;;;;;1999.90;999.90;;;25.90;45.00;;;;;;5027850;28;20355;-76
2022/05/08 11:58:59;;;;;;;1999.90;999.90;;;25.90;45.00;;;;;;5030161;28;20037;-76
2022/05/08 12:01:33;;;;;;;1999.90;999.90;;;25.70;44.90;;;;;;5029250;28;20375;-77
2022/05/08 12:04:20;;;;;;;1999.90;999.90;;;25.50;45.10;;;;;;5019781;28;20025;-77
2022/05/08 12:07:09;;;;;;;1999.90;999.90;;;25.50;45.10;;;;;;5029515;28;20512;-77
2022/05/08 12:10:00;;;;;;;1999.90;999.90;;;25.50;44.60;;;;;;5041729;28;20056;-76
2022/05/08 12:12:33;;;;;;;1999.90;999.90;;;25.60;44.40;;;;;;5013598;28;20082;-76
2022/05/08 12:15:06;;;;;;;1999.90;999.90;;;25.70;44.40;;;;;;5012629;28;20044;-77
2022/05/08 12:17:44;;;;;;;1999.90;999.90;;;25.80;44.20;;;;;;5029451;28;20513;-77
2022/05/08 12:20:28;;;;;;;1999.90;999.90;;;25.90;43.60;;;;;;5027954;28;20549;-77
2022/05/08 12:23:01;;;;;;;1999.90;999.90;;;25.90;43.30;;;;;;5013213;28;20045;-77